バミューダ の空港の天気 - METARとTAF

バミューダ国際空港 ( TXKF / BDA ) - バミューダ諸島 Ferry Reach
飛行場実況気象(Metar)
観測時間04/27 01:55 ADT (04/27 04:55 UTC)
風向・風速南 5m/s
視程10km以上
天気現象
全天を覆う雲 雲底高度 120m
気温22℃
湿度94%
気圧1019hPa
METARTXKF 270455Z 19010KT 9999 OVC004 22/21 Q1019
過去の天気等 Google飛行場航空写真 Wunderground天気予報

過去48時間のMETAR

飛行場予報(TAF)
発表時間: 4/27 01:00 ADT (4/27 04:00 UTC)
予報対象時間: 27日1時 ADT ~ 27日21時 ADT
風向・風速南 6m/s
視程10km以上
少しの雲 雲底高度 370m
全天の8割程度の雲 雲底高度 9,140m
27日1時 ADT ~ 27日6時 ADT に一時的に
全天の8割程度の雲 雲底高度 300m
27日1時 ADT ~ 27日6時 ADT に 確率 40% で一時的に
視程9,000m
天気現象弱いしゅう雨
全天の8割程度の雲 雲底高度 210m
27日1時 ADT ~ 27日6時 ADT に 確率 30% で一時的に
全天の8割程度の雲 雲底高度 120m
TAF AMD TXKF 270400Z 2704/2724 17012KT 9999 FEW012 BKN300
TEMPO 2704/2709 BKN010
PROB40 TEMPO 2704/2709 9000 -SHRA BKN007
PROB30 TEMPO 2704/2709 BKN004